sensor_id;sensor_type;location;lat;lon;timestamp;pressure;altitude;pressure_sealevel;temperature;humidity
59029;BME280;45919;51.420;5.454;2023-02-01T00:00:31;101950.53;;;5.95;79.68
59029;BME280;45919;51.420;5.454;2023-02-01T00:01:34;101947.94;;;5.95;79.62
59029;BME280;45919;51.420;5.454;2023-02-01T00:02:35;101948.69;;;5.92;79.60
59029;BME280;45919;51.420;5.454;2023-02-01T00:03:40;101940.81;;;5.91;79.57
59029;BME280;45919;51.420;5.454;2023-02-01T00:04:42;101936.34;;;5.88;79.43
59029;BME280;45919;51.420;5.454;2023-02-01T00:05:43;101940.56;;;5.86;79.58
59029;BME280;45919;51.420;5.454;2023-02-01T00:06:45;101936.13;;;5.83;79.45
59029;BME280;45919;51.420;5.454;2023-02-01T00:07:47;101934.31;;;5.82;79.32
59029;BME280;45919;51.420;5.454;2023-02-01T00:08:52;101935.94;;;5.80;79.53
59029;BME280;45919;51.420;5.454;2023-02-01T00:09:53;101936.78;;;5.79;79.37
59029;BME280;45919;51.420;5.454;2023-02-01T00:11:00;101937.47;;;5.77;79.49
59029;BME280;45919;51.420;5.454;2023-02-01T00:12:02;101925.34;;;5.76;79.42
59029;BME280;45919;51.420;5.454;2023-02-01T00:13:04;101927.03;;;5.75;79.59
59029;BME280;45919;51.420;5.454;2023-02-01T00:14:06;101929.63;;;5.75;79.20
59029;BME280;45919;51.420;5.454;2023-02-01T00:15:07;101926.97;;;5.73;79.48
59029;BME280;45919;51.420;5.454;2023-02-01T00:16:10;101931.25;;;5.73;79.30
59029;BME280;45919;51.420;5.454;2023-02-01T00:17:13;101927.88;;;5.74;79.13
59029;BME280;45919;51.420;5.454;2023-02-01T00:18:15;101929.47;;;5.72;79.18
59029;BME280;45919;51.420;5.454;2023-02-01T00:19:16;101932.06;;;5.72;78.99
59029;BME280;45919;51.420;5.454;2023-02-01T00:20:18;101936.34;;;5.71;79.02
59029;BME280;45919;51.420;5.454;2023-02-01T00:21:20;101932.91;;;5.71;78.93
59029;BME280;45919;51.420;5.454;2023-02-01T00:22:22;101926.81;;;5.70;79.00
59029;BME280;45919;51.420;5.454;2023-02-01T00:23:23;101917.34;;;5.71;78.92
59029;BME280;45919;51.420;5.454;2023-02-01T00:24:24;101909.44;;;5.69;78.88
59029;BME280;45919;51.420;5.454;2023-02-01T00:25:26;101902.56;;;5.70;78.83
59029;BME280;45919;51.420;5.454;2023-02-01T00:27:29;101910.44;;;5.71;78.63
59029;BME280;45919;51.420;5.454;2023-02-01T00:28:31;101902.66;;;5.71;78.52
59029;BME280;45919;51.420;5.454;2023-02-01T00:29:32;101894.00;;;5.71;78.50
59029;BME280;45919;51.420;5.454;2023-02-01T00:30:34;101902.66;;;5.71;78.40
59029;BME280;45919;51.420;5.454;2023-02-01T00:31:36;101898.22;;;5.69;78.21
59029;BME280;45919;51.420;5.454;2023-02-01T00:32:38;101899.09;;;5.69;78.30
59029;BME280;45919;51.420;5.454;2023-02-01T00:33:39;101895.53;;;5.67;77.92
59029;BME280;45919;51.420;5.454;2023-02-01T00:34:40;101900.63;;;5.66;78.33
59029;BME280;45919;51.420;5.454;2023-02-01T00:35:42;101904.94;;;5.65;78.04
59029;BME280;45919;51.420;5.454;2023-02-01T00:36:43;101899.00;;;5.68;77.95
59029;BME280;45919;51.420;5.454;2023-02-01T00:37:45;101902.34;;;5.65;77.84
59029;BME280;45919;51.420;5.454;2023-02-01T00:38:47;101904.88;;;5.64;77.91
59029;BME280;45919;51.420;5.454;2023-02-01T00:39:48;101909.16;;;5.63;78.08
59029;BME280;45919;51.420;5.454;2023-02-01T00:40:51;101900.47;;;5.62;77.96
59029;BME280;45919;51.420;5.454;2023-02-01T00:41:52;101901.22;;;5.60;78.02
59029;BME280;45919;51.420;5.454;2023-02-01T00:42:54;101891.72;;;5.60;77.99
59029;BME280;45919;51.420;5.454;2023-02-01T00:43:55;101891.72;;;5.60;77.77
59029;BME280;45919;51.420;5.454;2023-02-01T00:44:57;101893.50;;;5.61;77.51
59029;BME280;45919;51.420;5.454;2023-02-01T00:45:58;101883.88;;;5.59;77.51
59029;BME280;45919;51.420;5.454;2023-02-01T00:47:00;101894.16;;;5.57;77.69
59029;BME280;45919;51.420;5.454;2023-02-01T00:48:02;101883.88;;;5.59;77.36
59029;BME280;45919;51.420;5.454;2023-02-01T00:49:04;101888.00;;;5.55;77.31
59029;BME280;45919;51.420;5.454;2023-02-01T00:50:05;101880.28;;;5.57;77.29
59029;BME280;45919;51.420;5.454;2023-02-01T00:51:08;101889.59;;;5.53;77.16
59029;BME280;45919;51.420;5.454;2023-02-01T00:52:09;101892.13;;;5.52;77.00
59029;BME280;45919;51.420;5.454;2023-02-01T00:53:11;101895.34;;;5.47;77.24
59029;BME280;45919;51.420;5.454;2023-02-01T00:54:13;101900.38;;;5.44;77.31
59029;BME280;45919;51.420;5.454;2023-02-01T00:55:14;101898.53;;;5.42;77.30
59029;BME280;45919;51.420;5.454;2023-02-01T00:56:16;101904.44;;;5.39;77.38
59029;BME280;45919;51.420;5.454;2023-02-01T00:57:17;101905.25;;;5.38;77.56
59029;BME280;45919;51.420;5.454;2023-02-01T00:58:19;101904.34;;;5.37;77.75
59029;BME280;45919;51.420;5.454;2023-02-01T00:59:20;101905.25;;;5.38;77.66
59029;BME280;45919;51.420;5.454;2023-02-01T01:00:22;101907.84;;;5.38;77.45
59029;BME280;45919;51.420;5.454;2023-02-01T01:01:25;101911.22;;;5.37;77.55
59029;BME280;45919;51.420;5.454;2023-02-01T01:02:26;101912.84;;;5.35;77.46
59029;BME280;45919;51.420;5.454;2023-02-01T01:03:29;101910.16;;;5.33;77.57
59029;BME280;45919;51.420;5.454;2023-02-01T01:04:34;101912.13;;;5.37;77.48
59029;BME280;45919;51.420;5.454;2023-02-01T01:05:35;101913.81;;;5.37;77.41
59029;BME280;45919;51.420;5.454;2023-02-01T01:06:37;101911.22;;;5.37;77.28
59029;BME280;45919;51.420;5.454;2023-02-01T01:07:38;101913.75;;;5.35;77.24
59029;BME280;45919;51.420;5.454;2023-02-01T01:08:40;101908.56;;;5.35;77.01
59029;BME280;45919;51.420;5.454;2023-02-01T01:09:42;101914.63;;;5.36;77.09
59029;BME280;45919;51.420;5.454;2023-02-01T01:10:43;101919.81;;;5.36;76.94
59029;BME280;45919;51.420;5.454;2023-02-01T01:11:45;101915.44;;;5.35;76.85
59029;BME280;45919;51.420;5.454;2023-02-01T01:12:46;101919.63;;;5.33;76.82
59029;BME280;45919;51.420;5.454;2023-02-01T01:13:48;101915.97;;;5.29;77.04
59029;BME280;45919;51.420;5.454;2023-02-01T01:14:50;101924.50;;;5.26;77.00
59029;BME280;45919;51.420;5.454;2023-02-01T01:15:52;101917.50;;;5.25;76.97
59029;BME280;45919;51.420;5.454;2023-02-01T01:16:53;101918.34;;;5.24;77.04
59029;BME280;45919;51.420;5.454;2023-02-01T01:17:55;101919.03;;;5.22;77.20
59029;BME280;45919;51.420;5.454;2023-02-01T01:18:56;101919.88;;;5.21;77.30
59029;BME280;45919;51.420;5.454;2023-02-01T01:19:58;101920.78;;;5.21;77.07
59029;BME280;45919;51.420;5.454;2023-02-01T01:21:00;101924.97;;;5.19;77.20
59029;BME280;45919;51.420;5.454;2023-02-01T01:22:02;101932.00;;;5.22;76.93
59029;BME280;45919;51.420;5.454;2023-02-01T01:23:05;101925.06;;;5.21;76.93
59029;BME280;45919;51.420;5.454;2023-02-01T01:24:07;101920.78;;;5.21;77.06
59029;BME280;45919;51.420;5.454;2023-02-01T01:25:09;101920.78;;;5.21;77.15
59029;BME280;45919;51.420;5.454;2023-02-01T01:26:13;101919.13;;;5.23;77.09
59029;BME280;45919;51.420;5.454;2023-02-01T01:27:15;101910.66;;;5.26;77.06
59029;BME280;45919;51.420;5.454;2023-02-01T01:28:16;101909.75;;;5.25;77.06
59029;BME280;45919;51.420;5.454;2023-02-01T01:29:18;101910.81;;;5.29;76.78
59029;BME280;45919;51.420;5.454;2023-02-01T01:30:19;101909.81;;;5.27;76.84
59029;BME280;45919;51.420;5.454;2023-02-01T01:31:21;101900.19;;;5.24;76.89
59029;BME280;45919;51.420;5.454;2023-02-01T01:32:23;101901.72;;;5.21;76.79
59029;BME280;45919;51.420;5.454;2023-02-01T01:33:24;101901.56;;;5.18;76.92
59029;BME280;45919;51.420;5.454;2023-02-01T01:34:26;101905.78;;;5.16;77.01
59029;BME280;45919;51.420;5.454;2023-02-01T01:35:31;101905.50;;;5.11;76.99
59029;BME280;45919;51.420;5.454;2023-02-01T01:36:32;101908.84;;;5.08;76.96
59029;BME280;45919;51.420;5.454;2023-02-01T01:37:34;101914.72;;;5.06;77.06
59029;BME280;45919;51.420;5.454;2023-02-01T01:38:37;101912.97;;;5.05;77.34
59029;BME280;45919;51.420;5.454;2023-02-01T01:39:38;101908.56;;;5.03;77.43
59029;BME280;45919;51.420;5.454;2023-02-01T01:40:40;101904.19;;;5.02;77.25
59029;BME280;45919;51.420;5.454;2023-02-01T01:41:45;101904.03;;;4.99;77.21
59029;BME280;45919;51.420;5.454;2023-02-01T01:42:46;101916.09;;;4.99;77.30
59029;BME280;45919;51.420;5.454;2023-02-01T01:45:56;101914.06;;;4.93;77.46
59029;BME280;45919;51.420;5.454;2023-02-01T01:46:57;101914.06;;;4.93;77.43
59029;BME280;45919;51.420;5.454;2023-02-01T01:47:59;101912.34;;;4.94;77.36
59029;BME280;45919;51.420;5.454;2023-02-01T01:49:10;101912.28;;;4.92;77.33
59029;BME280;45919;51.420;5.454;2023-02-01T01:50:14;101910.56;;;4.93;77.30
59029;BME280;45919;51.420;5.454;2023-02-01T01:51:19;101920.91;;;4.93;77.36
59029;BME280;45919;51.420;5.454;2023-02-01T01:52:21;101917.47;;;4.92;77.21
59029;BME280;45919;51.420;5.454;2023-02-01T01:53:24;101919.06;;;4.90;77.28
59029;BME280;45919;51.420;5.454;2023-02-01T01:55:30;101922.53;;;4.90;77.37
59029;BME280;45919;51.420;5.454;2023-02-01T01:56:33;101915.66;;;4.91;77.33
59029;BME280;45919;51.420;5.454;2023-02-01T01:57:39;101923.41;;;4.91;77.26
59029;BME280;45919;51.420;5.454;2023-02-01T01:58:41;101925.03;;;4.89;77.29
59029;BME280;45919;51.420;5.454;2023-02-01T01:59:44;101918.97;;;4.88;77.37
59029;BME280;45919;51.420;5.454;2023-02-01T02:00:48;101922.28;;;4.86;77.43
59029;BME280;45919;51.420;5.454;2023-02-01T02:01:49;101915.50;;;4.88;77.40
59029;BME280;45919;51.420;5.454;2023-02-01T02:02:58;101925.78;;;4.86;77.31
59029;BME280;45919;51.420;5.454;2023-02-01T02:04:01;101921.47;;;4.87;77.51
59029;BME280;45919;51.420;5.454;2023-02-01T02:05:04;101919.69;;;4.86;77.51
59029;BME280;45919;51.420;5.454;2023-02-01T02:06:09;101924.16;;;4.88;77.56
59029;BME280;45919;51.420;5.454;2023-02-01T02:07:16;101926.63;;;4.87;77.30
59029;BME280;45919;51.420;5.454;2023-02-01T02:08:20;101926.56;;;4.85;77.38
59029;BME280;45919;51.420;5.454;2023-02-01T02:09:21;101929.06;;;4.84;77.42
59029;BME280;45919;51.420;5.454;2023-02-01T02:10:23;101924.78;;;4.84;77.53
59029;BME280;45919;51.420;5.454;2023-02-01T02:11:44;101919.53;;;4.83;77.55
59029;BME280;45919;51.420;5.454;2023-02-01T02:12:46;101919.59;;;4.84;77.47
59029;BME280;45919;51.420;5.454;2023-02-01T02:13:50;101915.13;;;4.82;77.69
59029;BME280;45919;51.420;5.454;2023-02-01T02:14:53;101908.19;;;4.81;77.75
59029;BME280;45919;51.420;5.454;2023-02-01T02:18:20;101909.78;;;4.78;77.63
59029;BME280;45919;51.420;5.454;2023-02-01T02:21:01;101909.63;;;4.75;77.86
59029;BME280;45919;51.420;5.454;2023-02-01T02:32:44;101877.09;;;4.96;77.82
59029;BME280;45919;51.420;5.454;2023-02-01T02:33:59;101887.59;;;4.99;77.88
59029;BME280;45919;51.420;5.454;2023-02-01T02:35:11;101881.69;;;5.01;77.97
59029;BME280;45919;51.420;5.454;2023-02-01T02:37:34;101868.19;;;5.07;77.84
59029;BME280;45919;51.420;5.454;2023-02-01T02:40:12;101868.44;;;5.12;77.75
59029;BME280;45919;51.420;5.454;2023-02-01T02:42:00;101866.66;;;5.11;77.78
59029;BME280;45919;51.420;5.454;2023-02-01T02:43:09;101874.34;;;5.09;77.88
59029;BME280;45919;51.420;5.454;2023-02-01T02:44:34;101868.38;;;5.10;77.98
59029;BME280;45919;51.420;5.454;2023-02-01T02:46:04;101875.25;;;5.10;78.00
59029;BME280;45919;51.420;5.454;2023-02-01T02:47:46;101867.63;;;5.13;77.93
59029;BME280;45919;51.420;5.454;2023-02-01T02:49:09;101877.84;;;5.10;77.89
59029;BME280;45919;51.420;5.454;2023-02-01T02:51:38;101870.78;;;5.07;78.06
59029;BME280;45919;51.420;5.454;2023-02-01T02:53:03;101864.63;;;5.05;78.42
59029;BME280;45919;51.420;5.454;2023-02-01T02:54:25;101871.59;;;5.06;78.32
59029;BME280;45919;51.420;5.454;2023-02-01T02:55:47;101865.59;;;5.07;78.38
59029;BME280;45919;51.420;5.454;2023-02-01T02:56:50;101871.91;;;5.12;78.24
59029;BME280;45919;51.420;5.454;2023-02-01T02:58:11;101878.00;;;5.13;78.14
59029;BME280;45919;51.420;5.454;2023-02-01T02:59:32;101875.41;;;5.13;78.14
59029;BME280;45919;51.420;5.454;2023-02-01T03:00:54;101875.41;;;5.13;78.14
59029;BME280;45919;51.420;5.454;2023-02-01T03:02:15;101872.03;;;5.14;78.13
59029;BME280;45919;51.420;5.454;2023-02-01T03:03:36;101870.22;;;5.13;78.08
59029;BME280;45919;51.420;5.454;2023-02-01T03:04:57;101870.22;;;5.13;78.32
59029;BME280;45919;51.420;5.454;2023-02-01T03:05:58;101858.16;;;5.13;78.29
59029;BME280;45919;51.420;5.454;2023-02-01T03:07:13;101858.97;;;5.12;78.20
59029;BME280;45919;51.420;5.454;2023-02-01T03:08:19;101857.28;;;5.13;78.22
59029;BME280;45919;51.420;5.454;2023-02-01T03:09:31;101864.06;;;5.11;78.24
59029;BME280;45919;51.420;5.454;2023-02-01T03:10:42;101861.47;;;5.11;78.50
59029;BME280;45919;51.420;5.454;2023-02-01T03:11:45;101862.53;;;5.14;78.40
59029;BME280;45919;51.420;5.454;2023-02-01T03:13:08;101862.38;;;5.11;78.21
59029;BME280;45919;51.420;5.454;2023-02-01T03:14:11;101857.13;;;5.10;78.37
59029;BME280;45919;51.420;5.454;2023-02-01T03:15:15;101856.22;;;5.09;78.39
59029;BME280;45919;51.420;5.454;2023-02-01T03:16:24;101850.06;;;5.07;78.38
59029;BME280;45919;51.420;5.454;2023-02-01T03:17:30;101853.69;;;5.11;78.53
59029;BME280;45919;51.420;5.454;2023-02-01T03:18:46;101852.66;;;5.07;78.22
59029;BME280;45919;51.420;5.454;2023-02-01T03:19:51;101851.66;;;5.05;78.20
59029;BME280;45919;51.420;5.454;2023-02-01T03:20:53;101852.50;;;5.04;78.41
59029;BME280;45919;51.420;5.454;2023-02-01T03:22:00;101860.19;;;5.02;78.36
59029;BME280;45919;51.420;5.454;2023-02-01T03:23:02;101845.44;;;5.01;78.61
59029;BME280;45919;51.420;5.454;2023-02-01T03:24:19;101859.34;;;5.03;78.46
59029;BME280;45919;51.420;5.454;2023-02-01T03:25:22;101859.44;;;5.05;78.52
59029;BME280;45919;51.420;5.454;2023-02-01T03:26:26;101867.13;;;5.03;78.55
59029;BME280;45919;51.420;5.454;2023-02-01T03:27:30;101864.38;;;5.00;78.46
59029;BME280;45919;51.420;5.454;2023-02-01T03:28:33;101858.38;;;5.01;78.53
59029;BME280;45919;51.420;5.454;2023-02-01T03:29:46;101857.44;;;4.99;78.49
59029;BME280;45919;51.420;5.454;2023-02-01T03:30:50;101858.28;;;5.00;78.59
59029;BME280;45919;51.420;5.454;2023-02-01T03:31:52;101864.38;;;5.00;78.53
59029;BME280;45919;51.420;5.454;2023-02-01T03:32:55;101855.78;;;5.01;78.54
59029;BME280;45919;51.420;5.454;2023-02-01T03:34:00;101854.84;;;4.99;78.62
59029;BME280;45919;51.420;5.454;2023-02-01T03:35:02;101860.19;;;5.02;78.44
59029;BME280;45919;51.420;5.454;2023-02-01T03:36:16;101858.50;;;5.03;78.52
59029;BME280;45919;51.420;5.454;2023-02-01T03:37:22;101858.38;;;5.01;78.58
59029;BME280;45919;51.420;5.454;2023-02-01T03:39:34;101862.03;;;5.05;78.62
59029;BME280;45919;51.420;5.454;2023-02-01T03:40:37;101863.91;;;5.08;78.46
59029;BME280;45919;51.420;5.454;2023-02-01T03:41:40;101860.59;;;5.10;78.58
59029;BME280;45919;51.420;5.454;2023-02-01T03:42:43;101865.13;;;5.14;78.43
59029;BME280;45919;51.420;5.454;2023-02-01T03:45:54;101847.72;;;5.12;78.42
59029;BME280;45919;51.420;5.454;2023-02-01T03:46:59;101859.88;;;5.13;78.38
59029;BME280;45919;51.420;5.454;2023-02-01T03:48:04;101859.88;;;5.13;78.46
59029;BME280;45919;51.420;5.454;2023-02-01T03:49:07;101858.88;;;5.11;78.40
59029;BME280;45919;51.420;5.454;2023-02-01T03:50:12;101844.09;;;5.08;78.58
59029;BME280;45919;51.420;5.454;2023-02-01T03:51:16;101848.28;;;5.06;78.51
59029;BME280;45919;51.420;5.454;2023-02-01T03:52:25;101854.38;;;5.07;78.64
59029;BME280;45919;51.420;5.454;2023-02-01T03:53:29;101857.66;;;5.04;78.61
59029;BME280;45919;51.420;5.454;2023-02-01T03:54:32;101858.38;;;5.01;78.58
59029;BME280;45919;51.420;5.454;2023-02-01T03:55:34;101858.28;;;5.00;78.71
59029;BME280;45919;51.420;5.454;2023-02-01T03:56:36;101857.44;;;4.99;78.62
59029;BME280;45919;51.420;5.454;2023-02-01T03:57:43;101852.13;;;4.98;78.66
59029;BME280;45919;51.420;5.454;2023-02-01T03:58:46;101860.81;;;4.98;78.86
59029;BME280;45919;51.420;5.454;2023-02-01T04:00:06;101858.28;;;5.00;78.70
59029;BME280;45919;51.420;5.454;2023-02-01T04:01:09;101858.13;;;4.97;78.71
59029;BME280;45919;51.420;5.454;2023-02-01T04:02:10;101858.06;;;4.95;78.67
59029;BME280;45919;51.420;5.454;2023-02-01T04:03:12;101859.59;;;4.92;78.73
59029;BME280;45919;51.420;5.454;2023-02-01T04:04:13;101852.59;;;4.90;78.77
59029;BME280;45919;51.420;5.454;2023-02-01T04:05:21;101858.06;;;4.95;78.91
59029;BME280;45919;51.420;5.454;2023-02-01T04:06:23;101855.53;;;4.97;78.73
59029;BME280;45919;51.420;5.454;2023-02-01T04:07:25;101847.78;;;4.97;78.68
59029;BME280;45919;51.420;5.454;2023-02-01T04:08:26;101849.22;;;4.92;78.58
59029;BME280;45919;51.420;5.454;2023-02-01T04:09:28;101852.59;;;4.90;78.73
59029;BME280;45919;51.420;5.454;2023-02-01T04:10:30;101844.75;;;4.89;78.83
59029;BME280;45919;51.420;5.454;2023-02-01T04:11:31;101849.06;;;4.88;78.73
59029;BME280;45919;51.420;5.454;2023-02-01T04:12:33;101851.66;;;4.88;78.75
59029;BME280;45919;51.420;5.454;2023-02-01T04:13:34;101854.13;;;4.87;79.00
59029;BME280;45919;51.420;5.454;2023-02-01T04:14:36;101858.44;;;4.86;78.97
59029;BME280;45919;51.420;5.454;2023-02-01T04:15:37;101853.28;;;4.86;78.95
59029;BME280;45919;51.420;5.454;2023-02-01T04:16:39;101843.00;;;4.88;78.70
59029;BME280;45919;51.420;5.454;2023-02-01T04:17:40;101848.25;;;4.89;78.95
59029;BME280;45919;51.420;5.454;2023-02-01T04:18:41;101841.31;;;4.88;78.63
59029;BME280;45919;51.420;5.454;2023-02-01T04:19:43;101836.91;;;4.87;78.81
59029;BME280;45919;51.420;5.454;2023-02-01T04:20:44;101845.44;;;4.85;78.73
59029;BME280;45919;51.420;5.454;2023-02-01T04:21:46;101833.34;;;4.85;78.98
59029;BME280;45919;51.420;5.454;2023-02-01T04:22:47;101828.09;;;4.84;78.99
59029;BME280;45919;51.420;5.454;2023-02-01T04:23:49;101829.69;;;4.82;78.80
59029;BME280;45919;51.420;5.454;2023-02-01T04:24:50;101828.91;;;4.83;79.07
59029;BME280;45919;51.420;5.454;2023-02-01T04:25:52;101821.16;;;4.83;78.93
59029;BME280;45919;51.420;5.454;2023-02-01T04:26:53;101811.66;;;4.83;78.93
59029;BME280;45919;51.420;5.454;2023-02-01T04:27:55;101829.78;;;4.83;79.02
59029;BME280;45919;51.420;5.454;2023-02-01T04:28:56;101826.25;;;4.81;79.07
59029;BME280;45919;51.420;5.454;2023-02-01T04:29:57;101834.97;;;4.83;79.06
59029;BME280;45919;51.420;5.454;2023-02-01T04:30:59;101832.56;;;4.86;78.96
59029;BME280;45919;51.420;5.454;2023-02-01T04:32:00;101842.91;;;4.86;78.99
59029;BME280;45919;51.420;5.454;2023-02-01T04:33:02;101836.00;;;4.87;78.86
59029;BME280;45919;51.420;5.454;2023-02-01T04:34:06;101844.59;;;4.86;78.92
59029;BME280;45919;51.420;5.454;2023-02-01T04:35:08;101841.94;;;4.84;78.92
59029;BME280;45919;51.420;5.454;2023-02-01T04:36:09;101840.13;;;4.83;78.98
59029;BME280;45919;51.420;5.454;2023-02-01T04:37:11;101841.94;;;4.84;79.02
59029;BME280;45919;51.420;5.454;2023-02-01T04:38:12;101849.69;;;4.84;78.98
59029;BME280;45919;51.420;5.454;2023-02-01T04:39:14;101846.22;;;4.84;78.96
59029;BME280;45919;51.420;5.454;2023-02-01T04:40:15;101840.94;;;4.82;78.93
59029;BME280;45919;51.420;5.454;2023-02-01T04:41:17;101848.88;;;4.85;78.80
59029;BME280;45919;51.420;5.454;2023-02-01T04:42:20;101841.03;;;4.84;79.02
59029;BME280;45919;51.420;5.454;2023-02-01T04:43:21;101836.59;;;4.81;78.96
59029;BME280;45919;51.420;5.454;2023-02-01T04:44:23;101843.38;;;4.79;79.09
59029;BME280;45919;51.420;5.454;2023-02-01T04:45:24;101844.16;;;4.78;79.06
59029;BME280;45919;51.420;5.454;2023-02-01T04:46:26;101843.31;;;4.77;78.98
59029;BME280;45919;51.420;5.454;2023-02-01T04:47:27;101846.69;;;4.76;79.19
59029;BME280;45919;51.420;5.454;2023-02-01T04:48:29;101846.84;;;4.79;79.21
59029;BME280;45919;51.420;5.454;2023-02-01T04:49:31;101844.16;;;4.78;79.05
59029;BME280;45919;51.420;5.454;2023-02-01T04:50:32;101846.69;;;4.76;79.27
59029;BME280;45919;51.420;5.454;2023-02-01T04:51:34;101851.78;;;4.75;79.18
59029;BME280;45919;51.420;5.454;2023-02-01T04:52:36;101846.59;;;4.75;79.13
59029;BME280;45919;51.420;5.454;2023-02-01T04:53:37;101846.44;;;4.72;79.21
59029;BME280;45919;51.420;5.454;2023-02-01T04:54:39;101852.47;;;4.72;79.24
59029;BME280;45919;51.420;5.454;2023-02-01T04:55:41;101849.81;;;4.71;79.25
59029;BME280;45919;51.420;5.454;2023-02-01T04:56:42;101859.19;;;4.69;79.37
59029;BME280;45919;51.420;5.454;2023-02-01T04:57:44;101852.16;;;4.66;79.27
59029;BME280;45919;51.420;5.454;2023-02-01T04:58:45;101850.34;;;4.65;79.42
59029;BME280;45919;51.420;5.454;2023-02-01T04:59:47;101857.34;;;4.66;79.93
59029;BME280;45919;51.420;5.454;2023-02-01T05:00:48;101853.75;;;4.64;79.50
59029;BME280;45919;51.420;5.454;2023-02-01T05:01:50;101857.16;;;4.63;79.53
59029;BME280;45919;51.420;5.454;2023-02-01T05:02:52;101858.94;;;4.64;79.47
59029;BME280;45919;51.420;5.454;2023-02-01T05:03:53;101855.38;;;4.62;79.49
59029;BME280;45919;51.420;5.454;2023-02-01T05:04:55;101854.47;;;4.61;79.52
59029;BME280;45919;51.420;5.454;2023-02-01T05:05:57;101860.47;;;4.60;79.55
59029;BME280;45919;51.420;5.454;2023-02-01T05:06:58;101859.47;;;4.58;79.51
59029;BME280;45919;51.420;5.454;2023-02-01T05:08:00;101870.13;;;4.63;79.66
59029;BME280;45919;51.420;5.454;2023-02-01T05:09:01;101863.94;;;4.61;79.69
59029;BME280;45919;51.420;5.454;2023-02-01T05:10:03;101864.81;;;4.61;79.53
59029;BME280;45919;51.420;5.454;2023-02-01T05:11:05;101870.81;;;4.60;79.43
59029;BME280;45919;51.420;5.454;2023-02-01T05:12:07;101866.47;;;4.59;79.45
59029;BME280;45919;51.420;5.454;2023-02-01T05:13:28;101865.47;;;4.57;79.58
59029;BME280;45919;51.420;5.454;2023-02-01T05:14:48;101874.22;;;4.59;79.65
59029;BME280;45919;51.420;5.454;2023-02-01T05:15:50;101871.81;;;4.62;79.62
59029;BME280;45919;51.420;5.454;2023-02-01T05:16:52;101862.97;;;4.59;79.57
59029;BME280;45919;51.420;5.454;2023-02-01T05:17:53;101865.47;;;4.57;79.65
59029;BME280;45919;51.420;5.454;2023-02-01T05:18:54;101861.09;;;4.56;79.82
59029;BME280;45919;51.420;5.454;2023-02-01T05:19:56;101862.88;;;4.57;79.32
59029;BME280;45919;51.420;5.454;2023-02-01T05:20:58;101860.38;;;4.59;79.77
59029;BME280;45919;51.420;5.454;2023-02-01T05:21:59;101856.81;;;4.57;79.56
59029;BME280;45919;51.420;5.454;2023-02-01T05:23:01;101863.69;;;4.56;79.66
59029;BME280;45919;51.420;5.454;2023-02-01T05:24:02;101854.16;;;4.55;79.58
59029;BME280;45919;51.420;5.454;2023-02-01T05:25:21;101855.84;;;4.54;79.57
59029;BME280;45919;51.420;5.454;2023-02-01T05:26:22;101858.41;;;4.54;79.72
59029;BME280;45919;51.420;5.454;2023-02-01T05:27:24;101859.56;;;4.60;79.85
59029;BME280;45919;51.420;5.454;2023-02-01T05:28:25;101858.78;;;4.61;79.79
59029;BME280;45919;51.420;5.454;2023-02-01T05:29:27;101850.28;;;4.63;80.14
59029;BME280;45919;51.420;5.454;2023-02-01T05:30:28;101849.56;;;4.66;79.84
59029;BME280;45919;51.420;5.454;2023-02-01T05:31:30;101842.78;;;4.68;79.67
59029;BME280;45919;51.420;5.454;2023-02-01T05:32:32;101839.47;;;4.71;79.63
59029;BME280;45919;51.420;5.454;2023-02-01T05:33:34;101850.78;;;4.73;79.71
59029;BME280;45919;51.420;5.454;2023-02-01T05:34:35;101840.44;;;4.73;79.74
59029;BME280;45919;51.420;5.454;2023-02-01T05:35:38;101843.31;;;4.77;79.83
59029;BME280;45919;51.420;5.454;2023-02-01T05:36:39;101846.94;;;4.81;79.91
59029;BME280;45919;51.420;5.454;2023-02-01T05:37:41;101842.84;;;4.85;79.71
59029;BME280;45919;51.420;5.454;2023-02-01T05:38:43;101841.47;;;4.92;79.55
59029;BME280;45919;51.420;5.454;2023-02-01T05:39:44;101837.19;;;4.92;79.30
59029;BME280;45919;51.420;5.454;2023-02-01T05:40:45;101828.69;;;4.95;79.61
59029;BME280;45919;51.420;5.454;2023-02-01T05:41:50;101835.81;;;4.99;79.56
59029;BME280;45919;51.420;5.454;2023-02-01T05:42:52;101831.63;;;5.01;79.57
59029;BME280;45919;51.420;5.454;2023-02-01T05:43:53;101837.84;;;5.05;79.45
59029;BME280;45919;51.420;5.454;2023-02-01T05:44:55;101841.41;;;5.07;79.46
59029;BME280;45919;51.420;5.454;2023-02-01T05:45:56;101836.31;;;5.08;79.46
59029;BME280;45919;51.420;5.454;2023-02-01T05:46:57;101836.31;;;5.08;79.29
59029;BME280;45919;51.420;5.454;2023-02-01T05:47:59;101844.16;;;5.10;79.31
59029;BME280;45919;51.420;5.454;2023-02-01T05:49:01;101846.00;;;5.12;79.36
59029;BME280;45919;51.420;5.454;2023-02-01T05:50:03;101850.63;;;5.18;79.43
59029;BME280;45919;51.420;5.454;2023-02-01T05:51:04;101842.22;;;5.22;79.23
59029;BME280;45919;51.420;5.454;2023-02-01T05:52:06;101843.06;;;5.21;79.24
59029;BME280;45919;51.420;5.454;2023-02-01T05:53:07;101845.66;;;5.21;79.15
59029;BME280;45919;51.420;5.454;2023-02-01T05:54:09;101850.16;;;5.25;79.39
59029;BME280;45919;51.420;5.454;2023-02-01T05:55:11;101850.50;;;5.32;79.24
59029;BME280;45919;51.420;5.454;2023-02-01T05:56:12;101858.19;;;5.30;79.41
59029;BME280;45919;51.420;5.454;2023-02-01T05:57:14;101852.38;;;5.34;79.09
59029;BME280;45919;51.420;5.454;2023-02-01T05:58:15;101852.59;;;5.39;78.99
59029;BME280;45919;51.420;5.454;2023-02-01T05:59:17;101849.84;;;5.36;78.94
59029;BME280;45919;51.420;5.454;2023-02-01T06:00:18;101854.06;;;5.34;78.99
59029;BME280;45919;51.420;5.454;2023-02-01T06:01:22;101852.59;;;5.39;79.13
59029;BME280;45919;51.420;5.454;2023-02-01T06:02:23;101850.72;;;5.36;79.04
59029;BME280;45919;51.420;5.454;2023-02-01T06:03:25;101855.84;;;5.35;78.98
59029;BME280;45919;51.420;5.454;2023-02-01T06:04:27;101853.31;;;5.36;79.29
59029;BME280;45919;51.420;5.454;2023-02-01T06:05:28;101856.25;;;5.43;79.24